sensor_id;sensor_type;location;lat;lon;timestamp;P1;durP1;ratioP1;P2;durP2;ratioP2
75272;SDS011;63869;52.344;16.928;2023-04-06T00:00:45;25.02;;;13.48;;
75272;SDS011;63869;52.344;16.928;2023-04-06T00:03:14;26.30;;;14.07;;
75272;SDS011;63869;52.344;16.928;2023-04-06T00:05:39;25.35;;;14.27;;
75272;SDS011;63869;52.344;16.928;2023-04-06T00:08:04;27.80;;;15.35;;
75272;SDS011;63869;52.344;16.928;2023-04-06T00:10:30;28.63;;;15.73;;
75272;SDS011;63869;52.344;16.928;2023-04-06T00:12:55;29.67;;;15.77;;
75272;SDS011;63869;52.344;16.928;2023-04-06T00:15:22;32.13;;;17.25;;
75272;SDS011;63869;52.344;16.928;2023-04-06T00:17:47;28.67;;;16.37;;
75272;SDS011;63869;52.344;16.928;2023-04-06T00:20:13;27.33;;;15.93;;
75272;SDS011;63869;52.344;16.928;2023-04-06T00:22:38;31.40;;;17.00;;
75272;SDS011;63869;52.344;16.928;2023-04-06T00:25:04;29.83;;;15.88;;
75272;SDS011;63869;52.344;16.928;2023-04-06T00:27:29;28.85;;;15.55;;
75272;SDS011;63869;52.344;16.928;2023-04-06T00:29:55;29.13;;;16.00;;
75272;SDS011;63869;52.344;16.928;2023-04-06T00:32:20;29.27;;;15.70;;
75272;SDS011;63869;52.344;16.928;2023-04-06T00:34:46;31.37;;;15.77;;
75272;SDS011;63869;52.344;16.928;2023-04-06T00:37:11;28.47;;;15.60;;
75272;SDS011;63869;52.344;16.928;2023-04-06T00:39:37;29.13;;;15.73;;
75272;SDS011;63869;52.344;16.928;2023-04-06T00:42:04;28.33;;;15.23;;
75272;SDS011;63869;52.344;16.928;2023-04-06T00:44:35;29.45;;;15.18;;
75272;SDS011;63869;52.344;16.928;2023-04-06T00:47:02;26.10;;;14.40;;
75272;SDS011;63869;52.344;16.928;2023-04-06T00:49:27;27.53;;;14.90;;
75272;SDS011;63869;52.344;16.928;2023-04-06T00:51:52;28.35;;;14.77;;
75272;SDS011;63869;52.344;16.928;2023-04-06T00:54:18;28.67;;;15.00;;
75272;SDS011;63869;52.344;16.928;2023-04-06T00:56:43;28.00;;;14.73;;
75272;SDS011;63869;52.344;16.928;2023-04-06T00:59:09;27.47;;;14.50;;
75272;SDS011;63869;52.344;16.928;2023-04-06T01:01:35;28.10;;;14.30;;
75272;SDS011;63869;52.344;16.928;2023-04-06T01:04:02;28.63;;;14.13;;
75272;SDS011;63869;52.344;16.928;2023-04-06T01:06:28;29.38;;;14.52;;
75272;SDS011;63869;52.344;16.928;2023-04-06T01:08:53;28.40;;;14.90;;
75272;SDS011;63869;52.344;16.928;2023-04-06T01:11:19;29.93;;;15.07;;
75272;SDS011;63869;52.344;16.928;2023-04-06T01:13:45;32.53;;;15.27;;
75272;SDS011;63869;52.344;16.928;2023-04-06T01:16:10;31.87;;;16.07;;
75272;SDS011;63869;52.344;16.928;2023-04-06T01:18:37;32.07;;;16.17;;
75272;SDS011;63869;52.344;16.928;2023-04-06T01:21:03;33.25;;;15.82;;
75272;SDS011;63869;52.344;16.928;2023-04-06T01:23:28;35.63;;;16.87;;
75272;SDS011;63869;52.344;16.928;2023-04-06T01:25:53;34.00;;;16.67;;
75272;SDS011;63869;52.344;16.928;2023-04-06T01:28:19;38.47;;;16.77;;
75272;SDS011;63869;52.344;16.928;2023-04-06T01:30:45;34.15;;;17.17;;
75272;SDS011;63869;52.344;16.928;2023-04-06T01:33:10;33.80;;;16.70;;
75272;SDS011;63869;52.344;16.928;2023-04-06T01:35:35;36.83;;;17.15;;
75272;SDS011;63869;52.344;16.928;2023-04-06T01:38:01;35.28;;;17.10;;
75272;SDS011;63869;52.344;16.928;2023-04-06T01:40:26;32.55;;;16.42;;
75272;SDS011;63869;52.344;16.928;2023-04-06T01:42:52;36.30;;;17.00;;
75272;SDS011;63869;52.344;16.928;2023-04-06T01:45:18;34.77;;;17.07;;
75272;SDS011;63869;52.344;16.928;2023-04-06T01:47:43;36.00;;;17.40;;
75272;SDS011;63869;52.344;16.928;2023-04-06T01:50:08;34.40;;;16.50;;
75272;SDS011;63869;52.344;16.928;2023-04-06T01:52:34;32.63;;;16.35;;
75272;SDS011;63869;52.344;16.928;2023-04-06T01:54:59;34.53;;;16.65;;
75272;SDS011;63869;52.344;16.928;2023-04-06T01:57:25;30.20;;;15.87;;
75272;SDS011;63869;52.344;16.928;2023-04-06T01:59:50;31.30;;;16.30;;
75272;SDS011;63869;52.344;16.928;2023-04-06T02:02:16;33.70;;;15.70;;
75272;SDS011;63869;52.344;16.928;2023-04-06T02:04:41;32.53;;;16.87;;
75272;SDS011;63869;52.344;16.928;2023-04-06T02:07:06;31.67;;;15.80;;
75272;SDS011;63869;52.344;16.928;2023-04-06T02:09:32;30.23;;;15.25;;
75272;SDS011;63869;52.344;16.928;2023-04-06T02:11:58;28.17;;;15.53;;
75272;SDS011;63869;52.344;16.928;2023-04-06T02:14:25;30.30;;;15.52;;
75272;SDS011;63869;52.344;16.928;2023-04-06T02:16:51;32.58;;;15.52;;
75272;SDS011;63869;52.344;16.928;2023-04-06T02:19:16;32.70;;;15.57;;
75272;SDS011;63869;52.344;16.928;2023-04-06T02:21:41;29.73;;;15.00;;
75272;SDS011;63869;52.344;16.928;2023-04-06T02:24:07;32.13;;;15.87;;
75272;SDS011;63869;52.344;16.928;2023-04-06T02:26:32;28.50;;;15.17;;
75272;SDS011;63869;52.344;16.928;2023-04-06T02:28:58;31.47;;;15.93;;
75272;SDS011;63869;52.344;16.928;2023-04-06T02:31:23;33.23;;;16.00;;
75272;SDS011;63869;52.344;16.928;2023-04-06T02:33:48;33.07;;;16.20;;
75272;SDS011;63869;52.344;16.928;2023-04-06T02:36:14;28.13;;;15.20;;
75272;SDS011;63869;52.344;16.928;2023-04-06T02:38:39;30.73;;;15.88;;
75272;SDS011;63869;52.344;16.928;2023-04-06T02:41:05;29.00;;;15.60;;
75272;SDS011;63869;52.344;16.928;2023-04-06T02:43:30;33.13;;;16.20;;
75272;SDS011;63869;52.344;16.928;2023-04-06T02:45:55;29.10;;;16.03;;
75272;SDS011;63869;52.344;16.928;2023-04-06T02:48:21;32.67;;;15.87;;
75272;SDS011;63869;52.344;16.928;2023-04-06T02:50:46;31.30;;;16.20;;
75272;SDS011;63869;52.344;16.928;2023-04-06T02:53:12;29.33;;;15.97;;
75272;SDS011;63869;52.344;16.928;2023-04-06T02:55:37;31.73;;;16.00;;
75272;SDS011;63869;52.344;16.928;2023-04-06T02:58:02;31.73;;;16.27;;
75272;SDS011;63869;52.344;16.928;2023-04-06T03:00:27;32.70;;;16.43;;
75272;SDS011;63869;52.344;16.928;2023-04-06T03:02:53;28.70;;;15.43;;
75272;SDS011;63869;52.344;16.928;2023-04-06T03:05:18;29.53;;;14.77;;
75272;SDS011;63869;52.344;16.928;2023-04-06T03:07:43;31.90;;;15.83;;
75272;SDS011;63869;52.344;16.928;2023-04-06T03:10:09;30.02;;;15.77;;
75272;SDS011;63869;52.344;16.928;2023-04-06T03:12:35;29.08;;;15.93;;
75272;SDS011;63869;52.344;16.928;2023-04-06T03:15:01;28.50;;;15.73;;
75272;SDS011;63869;52.344;16.928;2023-04-06T03:17:26;27.80;;;15.30;;
75272;SDS011;63869;52.344;16.928;2023-04-06T03:19:51;31.65;;;15.90;;
75272;SDS011;63869;52.344;16.928;2023-04-06T03:22:17;31.47;;;15.97;;
75272;SDS011;63869;52.344;16.928;2023-04-06T03:24:42;31.07;;;16.50;;
75272;SDS011;63869;52.344;16.928;2023-04-06T03:27:07;28.60;;;16.10;;
75272;SDS011;63869;52.344;16.928;2023-04-06T03:29:33;29.83;;;15.43;;
75272;SDS011;63869;52.344;16.928;2023-04-06T03:31:59;29.80;;;15.68;;
75272;SDS011;63869;52.344;16.928;2023-04-06T03:34:24;27.65;;;15.40;;
75272;SDS011;63869;52.344;16.928;2023-04-06T03:36:49;28.77;;;15.32;;
75272;SDS011;63869;52.344;16.928;2023-04-06T03:39:15;32.17;;;16.13;;
75272;SDS011;63869;52.344;16.928;2023-04-06T03:41:40;29.60;;;16.03;;
75272;SDS011;63869;52.344;16.928;2023-04-06T03:44:05;29.73;;;16.53;;
75272;SDS011;63869;52.344;16.928;2023-04-06T03:46:31;29.43;;;16.10;;
75272;SDS011;63869;52.344;16.928;2023-04-06T03:48:56;30.60;;;15.93;;
75272;SDS011;63869;52.344;16.928;2023-04-06T03:51:21;30.07;;;15.63;;
75272;SDS011;63869;52.344;16.928;2023-04-06T03:53:47;30.17;;;15.57;;
75272;SDS011;63869;52.344;16.928;2023-04-06T03:56:12;29.20;;;15.47;;
75272;SDS011;63869;52.344;16.928;2023-04-06T03:58:39;28.53;;;15.27;;
75272;SDS011;63869;52.344;16.928;2023-04-06T04:01:04;30.10;;;15.23;;
75272;SDS011;63869;52.344;16.928;2023-04-06T04:03:29;28.63;;;15.23;;
75272;SDS011;63869;52.344;16.928;2023-04-06T04:05:55;27.77;;;15.18;;
75272;SDS011;63869;52.344;16.928;2023-04-06T04:08:20;28.53;;;15.00;;
75272;SDS011;63869;52.344;16.928;2023-04-06T04:10:46;27.30;;;14.75;;
75272;SDS011;63869;52.344;16.928;2023-04-06T04:13:11;28.93;;;14.90;;
75272;SDS011;63869;52.344;16.928;2023-04-06T04:15:38;38.75;;;18.88;;
75272;SDS011;63869;52.344;16.928;2023-04-06T04:18:03;33.90;;;18.43;;
75272;SDS011;63869;52.344;16.928;2023-04-06T04:20:30;38.28;;;19.25;;
75272;SDS011;63869;52.344;16.928;2023-04-06T04:22:55;35.83;;;19.00;;
75272;SDS011;63869;52.344;16.928;2023-04-06T04:25:20;51.65;;;20.90;;
75272;SDS011;63869;52.344;16.928;2023-04-06T04:27:47;40.03;;;20.03;;
75272;SDS011;63869;52.344;16.928;2023-04-06T04:30:13;77.03;;;21.92;;
75272;SDS011;63869;52.344;16.928;2023-04-06T04:32:39;242.95;;;29.38;;
75272;SDS011;63869;52.344;16.928;2023-04-06T04:35:04;173.83;;;27.53;;
75272;SDS011;63869;52.344;16.928;2023-04-06T04:37:31;202.55;;;27.98;;
75272;SDS011;63869;52.344;16.928;2023-04-06T04:39:56;63.80;;;20.37;;
75272;SDS011;63869;52.344;16.928;2023-04-06T04:42:22;50.07;;;20.17;;
75272;SDS011;63869;52.344;16.928;2023-04-06T04:44:47;49.03;;;19.27;;
75272;SDS011;63869;52.344;16.928;2023-04-06T04:47:12;55.83;;;20.73;;
75272;SDS011;63869;52.344;16.928;2023-04-06T04:49:38;40.22;;;20.60;;
75272;SDS011;63869;52.344;16.928;2023-04-06T04:52:03;67.57;;;27.97;;
75272;SDS011;63869;52.344;16.928;2023-04-06T04:54:28;69.47;;;28.33;;
75272;SDS011;63869;52.344;16.928;2023-04-06T04:56:54;77.73;;;27.93;;
75272;SDS011;63869;52.344;16.928;2023-04-06T04:59:19;81.20;;;31.00;;
75272;SDS011;63869;52.344;16.928;2023-04-06T05:01:44;119.68;;;38.95;;
75272;SDS011;63869;52.344;16.928;2023-04-06T05:04:10;58.15;;;25.60;;
75272;SDS011;63869;52.344;16.928;2023-04-06T05:06:35;58.63;;;25.83;;
75272;SDS011;63869;52.344;16.928;2023-04-06T05:09:01;127.80;;;35.63;;
75272;SDS011;63869;52.344;16.928;2023-04-06T05:11:26;154.47;;;40.53;;
75272;SDS011;63869;52.344;16.928;2023-04-06T05:13:51;153.00;;;39.63;;
75272;SDS011;63869;52.344;16.928;2023-04-06T05:16:17;118.13;;;38.57;;
75272;SDS011;63869;52.344;16.928;2023-04-06T05:18:42;112.13;;;37.20;;
75272;SDS011;63869;52.344;16.928;2023-04-06T05:21:07;107.27;;;37.63;;
75272;SDS011;63869;52.344;16.928;2023-04-06T05:23:35;96.55;;;36.80;;
75272;SDS011;63869;52.344;16.928;2023-04-06T05:26:00;85.23;;;36.13;;
75272;SDS011;63869;52.344;16.928;2023-04-06T05:28:26;80.00;;;32.47;;
75272;SDS011;63869;52.344;16.928;2023-04-06T05:30:51;72.55;;;30.80;;
75272;SDS011;63869;52.344;16.928;2023-04-06T05:33:17;70.50;;;31.17;;
75272;SDS011;63869;52.344;16.928;2023-04-06T05:35:43;70.27;;;31.67;;
75272;SDS011;63869;52.344;16.928;2023-04-06T05:38:11;83.07;;;35.15;;
75272;SDS011;63869;52.344;16.928;2023-04-06T05:40:36;61.17;;;30.73;;
75272;SDS011;63869;52.344;16.928;2023-04-06T05:43:03;53.80;;;26.65;;
75272;SDS011;63869;52.344;16.928;2023-04-06T05:45:28;52.43;;;25.17;;
75272;SDS011;63869;52.344;16.928;2023-04-06T05:47:54;54.47;;;23.37;;
75272;SDS011;63869;52.344;16.928;2023-04-06T05:50:19;52.33;;;22.67;;
75272;SDS011;63869;52.344;16.928;2023-04-06T05:52:45;49.47;;;23.13;;
75272;SDS011;63869;52.344;16.928;2023-04-06T05:55:11;43.95;;;22.25;;
75272;SDS011;63869;52.344;16.928;2023-04-06T05:57:37;44.88;;;22.15;;
75272;SDS011;63869;52.344;16.928;2023-04-06T06:00:02;47.83;;;21.90;;
75272;SDS011;63869;52.344;16.928;2023-04-06T06:02:32;46.38;;;21.70;;
75272;SDS011;63869;52.344;16.928;2023-04-06T06:04:57;43.22;;;20.70;;
75272;SDS011;63869;52.344;16.928;2023-04-06T06:07:23;43.45;;;20.70;;
75272;SDS011;63869;52.344;16.928;2023-04-06T06:09:48;40.15;;;19.88;;
75272;SDS011;63869;52.344;16.928;2023-04-06T06:12:14;51.43;;;24.73;;
75272;SDS011;63869;52.344;16.928;2023-04-06T06:14:39;155.60;;;77.50;;
75272;SDS011;63869;52.344;16.928;2023-04-06T06:17:04;283.73;;;115.73;;
75272;SDS011;63869;52.344;16.928;2023-04-06T06:19:30;102.87;;;47.23;;
75272;SDS011;63869;52.344;16.928;2023-04-06T06:21:55;146.87;;;66.23;;
75272;SDS011;63869;52.344;16.928;2023-04-06T06:24:20;92.70;;;46.40;;
75272;SDS011;63869;52.344;16.928;2023-04-06T06:26:46;49.90;;;27.60;;
75272;SDS011;63869;52.344;16.928;2023-04-06T06:29:13;43.47;;;17.50;;
75272;SDS011;63869;52.344;16.928;2023-04-06T06:31:39;41.38;;;24.90;;
75272;SDS011;63869;52.344;16.928;2023-04-06T06:34:05;48.50;;;17.52;;
75272;SDS011;63869;52.344;16.928;2023-04-06T06:36:30;35.25;;;17.02;;
75272;SDS011;63869;52.344;16.928;2023-04-06T06:38:56;29.15;;;16.90;;
75272;SDS011;63869;52.344;16.928;2023-04-06T06:41:23;29.42;;;16.13;;
75272;SDS011;63869;52.344;16.928;2023-04-06T06:43:49;33.60;;;17.70;;
75272;SDS011;63869;52.344;16.928;2023-04-06T06:46:15;27.60;;;17.50;;
75272;SDS011;63869;52.344;16.928;2023-04-06T06:48:40;33.90;;;17.30;;
75272;SDS011;63869;52.344;16.928;2023-04-06T06:51:07;38.43;;;16.60;;
75272;SDS011;63869;52.344;16.928;2023-04-06T06:53:34;33.25;;;15.50;;
75272;SDS011;63869;52.344;16.928;2023-04-06T06:55:59;25.37;;;14.20;;
75272;SDS011;63869;52.344;16.928;2023-04-06T06:58:25;184.17;;;83.93;;
75272;SDS011;63869;52.344;16.928;2023-04-06T07:00:50;37.35;;;19.92;;
75272;SDS011;63869;52.344;16.928;2023-04-06T07:03:15;26.67;;;15.77;;
75272;SDS011;63869;52.344;16.928;2023-04-06T07:05:47;26.07;;;13.67;;
75272;SDS011;63869;52.344;16.928;2023-04-06T07:08:18;32.72;;;13.48;;
75272;SDS011;63869;52.344;16.928;2023-04-06T07:10:43;20.33;;;12.63;;
75272;SDS011;63869;52.344;16.928;2023-04-06T07:13:09;19.70;;;11.13;;
75272;SDS011;63869;52.344;16.928;2023-04-06T07:15:35;18.80;;;10.90;;
75272;SDS011;63869;52.344;16.928;2023-04-06T07:18:00;18.43;;;10.70;;
75272;SDS011;63869;52.344;16.928;2023-04-06T07:20:28;26.05;;;9.73;;
75272;SDS011;63869;52.344;16.928;2023-04-06T07:22:54;19.37;;;10.40;;
75272;SDS011;63869;52.344;16.928;2023-04-06T07:25:19;17.23;;;10.00;;
75272;SDS011;63869;52.344;16.928;2023-04-06T07:27:45;13.50;;;9.37;;
75272;SDS011;63869;52.344;16.928;2023-04-06T07:30:10;17.70;;;10.03;;
75272;SDS011;63869;52.344;16.928;2023-04-06T07:32:36;16.33;;;9.97;;
75272;SDS011;63869;52.344;16.928;2023-04-06T07:35:01;17.67;;;8.50;;
75272;SDS011;63869;52.344;16.928;2023-04-06T07:37:27;15.05;;;9.55;;
75272;SDS011;63869;52.344;16.928;2023-04-06T07:39:53;20.10;;;12.30;;
75272;SDS011;63869;52.344;16.928;2023-04-06T07:42:18;14.87;;;9.07;;
75272;SDS011;63869;52.344;16.928;2023-04-06T07:44:43;16.38;;;9.80;;
75272;SDS011;63869;52.344;16.928;2023-04-06T07:47:09;14.83;;;9.37;;
75272;SDS011;63869;52.344;16.928;2023-04-06T07:49:35;18.97;;;9.67;;
75272;SDS011;63869;52.344;16.928;2023-04-06T07:52:00;21.60;;;13.50;;
75272;SDS011;63869;52.344;16.928;2023-04-06T07:54:27;19.02;;;11.40;;
75272;SDS011;63869;52.344;16.928;2023-04-06T07:56:53;18.40;;;10.00;;
75272;SDS011;63869;52.344;16.928;2023-04-06T07:59:18;17.90;;;8.73;;
75272;SDS011;63869;52.344;16.928;2023-04-06T08:01:43;14.53;;;9.00;;
75272;SDS011;63869;52.344;16.928;2023-04-06T08:04:09;26.57;;;9.63;;
75272;SDS011;63869;52.344;16.928;2023-04-06T08:06:34;15.13;;;8.93;;
75272;SDS011;63869;52.344;16.928;2023-04-06T08:09:01;22.33;;;9.40;;
75272;SDS011;63869;52.344;16.928;2023-04-06T08:11:26;14.13;;;8.57;;
75272;SDS011;63869;52.344;16.928;2023-04-06T08:13:53;15.20;;;9.33;;
75272;SDS011;63869;52.344;16.928;2023-04-06T08:16:19;14.02;;;9.00;;
75272;SDS011;63869;52.344;16.928;2023-04-06T08:18:44;14.10;;;8.60;;
75272;SDS011;63869;52.344;16.928;2023-04-06T08:21:10;11.13;;;7.43;;
75272;SDS011;63869;52.344;16.928;2023-04-06T08:23:36;11.82;;;7.53;;
75272;SDS011;63869;52.344;16.928;2023-04-06T08:26:01;12.88;;;7.82;;
75272;SDS011;63869;52.344;16.928;2023-04-06T08:28:26;13.30;;;7.80;;
75272;SDS011;63869;52.344;16.928;2023-04-06T08:30:52;12.20;;;7.47;;
75272;SDS011;63869;52.344;16.928;2023-04-06T08:33:17;17.65;;;10.55;;
75272;SDS011;63869;52.344;16.928;2023-04-06T08:35:42;13.83;;;9.63;;
75272;SDS011;63869;52.344;16.928;2023-04-06T08:38:08;13.27;;;8.20;;
75272;SDS011;63869;52.344;16.928;2023-04-06T08:40:37;15.60;;;9.05;;
75272;SDS011;63869;52.344;16.928;2023-04-06T08:43:03;15.07;;;7.37;;
75272;SDS011;63869;52.344;16.928;2023-04-06T08:45:34;13.65;;;7.32;;
75272;SDS011;63869;52.344;16.928;2023-04-06T08:48:00;11.85;;;7.65;;
75272;SDS011;63869;52.344;16.928;2023-04-06T08:50:28;11.53;;;7.17;;
75272;SDS011;63869;52.344;16.928;2023-04-06T08:52:55;54.67;;;9.77;;
75272;SDS011;63869;52.344;16.928;2023-04-06T08:55:21;16.02;;;7.85;;
75272;SDS011;63869;52.344;16.928;2023-04-06T08:57:49;15.25;;;7.50;;
75272;SDS011;63869;52.344;16.928;2023-04-06T09:00:15;94.40;;;11.63;;
75272;SDS011;63869;52.344;16.928;2023-04-06T09:02:42;29.92;;;8.85;;
75272;SDS011;63869;52.344;16.928;2023-04-06T09:05:09;10.80;;;7.40;;
75272;SDS011;63869;52.344;16.928;2023-04-06T09:07:36;13.68;;;7.50;;
75272;SDS011;63869;52.344;16.928;2023-04-06T09:10:03;11.87;;;7.50;;
75272;SDS011;63869;52.344;16.928;2023-04-06T09:12:32;10.70;;;7.00;;
75272;SDS011;63869;52.344;16.928;2023-04-06T09:14:59;12.00;;;7.38;;
75272;SDS011;63869;52.344;16.928;2023-04-06T09:19:55;15.63;;;7.47;;
75272;SDS011;63869;52.344;16.928;2023-04-06T09:22:21;11.07;;;7.35;;
75272;SDS011;63869;52.344;16.928;2023-04-06T09:24:50;11.55;;;7.13;;
75272;SDS011;63869;52.344;16.928;2023-04-06T09:27:18;11.45;;;7.15;;
75272;SDS011;63869;52.344;16.928;2023-04-06T09:30:08;17.75;;;9.27;;
75272;SDS011;63869;52.344;16.928;2023-04-06T09:32:48;12.60;;;7.30;;
75272;SDS011;63869;52.344;16.928;2023-04-06T09:35:14;14.23;;;8.20;;
75272;SDS011;63869;52.344;16.928;2023-04-06T09:37:40;12.68;;;8.30;;
75272;SDS011;63869;52.344;16.928;2023-04-06T09:40:07;17.55;;;8.00;;
75272;SDS011;63869;52.344;16.928;2023-04-06T09:42:33;16.23;;;9.57;;
75272;SDS011;63869;52.344;16.928;2023-04-06T09:44:59;13.48;;;8.35;;
75272;SDS011;63869;52.344;16.928;2023-04-06T09:47:25;12.65;;;7.22;;
75272;SDS011;63869;52.344;16.928;2023-04-06T09:49:54;12.68;;;7.30;;
75272;SDS011;63869;52.344;16.928;2023-04-06T09:52:27;11.57;;;7.75;;
75272;SDS011;63869;52.344;16.928;2023-04-06T09:54:55;10.93;;;7.00;;
75272;SDS011;63869;52.344;16.928;2023-04-06T09:57:28;13.70;;;7.93;;
75272;SDS011;63869;52.344;16.928;2023-04-06T10:00:03;11.38;;;7.30;;
75272;SDS011;63869;52.344;16.928;2023-04-06T10:08:06;12.45;;;7.00;;
75272;SDS011;63869;52.344;16.928;2023-04-06T10:10:35;10.40;;;6.93;;
75272;SDS011;63869;52.344;16.928;2023-04-06T10:13:00;13.40;;;7.00;;
75272;SDS011;63869;52.344;16.928;2023-04-06T10:15:27;11.43;;;6.85;;
75272;SDS011;63869;52.344;16.928;2023-04-06T10:17:54;16.10;;;7.50;;
75272;SDS011;63869;52.344;16.928;2023-04-06T10:20:22;12.25;;;7.13;;
75272;SDS011;63869;52.344;16.928;2023-04-06T10:25:31;10.93;;;6.37;;
75272;SDS011;63869;52.344;16.928;2023-04-06T10:28:08;18.92;;;8.02;;
75272;SDS011;63869;52.344;16.928;2023-04-06T10:30:41;11.48;;;7.00;;
75272;SDS011;63869;52.344;16.928;2023-04-06T10:33:19;10.43;;;6.82;;
75272;SDS011;63869;52.344;16.928;2023-04-06T10:35:45;10.43;;;6.57;;
75272;SDS011;63869;52.344;16.928;2023-04-06T10:38:11;14.68;;;7.70;;
75272;SDS011;63869;52.344;16.928;2023-04-06T10:40:39;10.52;;;6.53;;
75272;SDS011;63869;52.344;16.928;2023-04-06T10:43:27;9.98;;;6.57;;
75272;SDS011;63869;52.344;16.928;2023-04-06T10:45:59;10.48;;;6.50;;
75272;SDS011;63869;52.344;16.928;2023-04-06T10:48:35;14.65;;;6.72;;
75272;SDS011;63869;52.344;16.928;2023-04-06T10:51:06;12.43;;;6.60;;
75272;SDS011;63869;52.344;16.928;2023-04-06T10:53:33;9.30;;;6.22;;
75272;SDS011;63869;52.344;16.928;2023-04-06T10:55:59;11.93;;;6.45;;
75272;SDS011;63869;52.344;16.928;2023-04-06T10:58:25;10.02;;;6.75;;
75272;SDS011;63869;52.344;16.928;2023-04-06T11:00:52;10.25;;;6.72;;
75272;SDS011;63869;52.344;16.928;2023-04-06T11:03:19;10.25;;;5.82;;
75272;SDS011;63869;52.344;16.928;2023-04-06T11:05:48;8.65;;;5.63;;
75272;SDS011;63869;52.344;16.928;2023-04-06T11:08:27;9.70;;;5.78;;
75272;SDS011;63869;52.344;16.928;2023-04-06T11:11:09;9.50;;;6.20;;
75272;SDS011;63869;52.344;16.928;2023-04-06T11:13:36;11.15;;;6.35;;
75272;SDS011;63869;52.344;16.928;2023-04-06T11:16:23;10.77;;;6.78;;
75272;SDS011;63869;52.344;16.928;2023-04-06T11:18:51;13.50;;;7.50;;
75272;SDS011;63869;52.344;16.928;2023-04-06T11:21:30;11.88;;;6.90;;
75272;SDS011;63869;52.344;16.928;2023-04-06T11:24:08;10.43;;;5.40;;
75272;SDS011;63869;52.344;16.928;2023-04-06T11:26:41;24.80;;;6.80;;
75272;SDS011;63869;52.344;16.928;2023-04-06T11:29:09;9.88;;;6.05;;
75272;SDS011;63869;52.344;16.928;2023-04-06T11:31:50;40.30;;;7.80;;
75272;SDS011;63869;52.344;16.928;2023-04-06T11:34:18;10.20;;;5.60;;
75272;SDS011;63869;52.344;16.928;2023-04-06T11:36:45;9.60;;;6.03;;
75272;SDS011;63869;52.344;16.928;2023-04-06T11:39:12;9.80;;;6.07;;
75272;SDS011;63869;52.344;16.928;2023-04-06T11:41:39;9.13;;;5.22;;
75272;SDS011;63869;52.344;16.928;2023-04-06T11:44:05;8.80;;;5.17;;
75272;SDS011;63869;52.344;16.928;2023-04-06T11:46:31;10.23;;;5.10;;
75272;SDS011;63869;52.344;16.928;2023-04-06T11:49:00;9.50;;;5.20;;
75272;SDS011;63869;52.344;16.928;2023-04-06T11:51:27;7.93;;;5.10;;
75272;SDS011;63869;52.344;16.928;2023-04-06T11:53:52;30.15;;;5.97;;
75272;SDS011;63869;52.344;16.928;2023-04-06T11:56:25;8.52;;;4.68;;
75272;SDS011;63869;52.344;16.928;2023-04-06T11:58:53;8.25;;;4.97;;
75272;SDS011;63869;52.344;16.928;2023-04-06T12:01:19;6.90;;;4.85;;
75272;SDS011;63869;52.344;16.928;2023-04-06T12:03:45;8.60;;;5.33;;
75272;SDS011;63869;52.344;16.928;2023-04-06T12:06:10;10.88;;;6.22;;
75272;SDS011;63869;52.344;16.928;2023-04-06T12:08:36;10.05;;;5.03;;
75272;SDS011;63869;52.344;16.928;2023-04-06T12:11:01;15.57;;;6.90;;
75272;SDS011;63869;52.344;16.928;2023-04-06T12:13:27;52.55;;;7.57;;
75272;SDS011;63869;52.344;16.928;2023-04-06T12:15:52;12.27;;;5.70;;
75272;SDS011;63869;52.344;16.928;2023-04-06T12:18:18;10.60;;;5.20;;
75272;SDS011;63869;52.344;16.928;2023-04-06T12:20:43;9.03;;;5.37;;
75272;SDS011;63869;52.344;16.928;2023-04-06T12:23:08;22.17;;;7.57;;
75272;SDS011;63869;52.344;16.928;2023-04-06T12:25:34;15.37;;;7.03;;
75272;SDS011;63869;52.344;16.928;2023-04-06T12:28:00;19.27;;;8.85;;
75272;SDS011;63869;52.344;16.928;2023-04-06T12:30:25;9.73;;;6.03;;
75272;SDS011;63869;52.344;16.928;2023-04-06T12:32:51;26.43;;;8.70;;
75272;SDS011;63869;52.344;16.928;2023-04-06T12:35:16;79.85;;;10.85;;
75272;SDS011;63869;52.344;16.928;2023-04-06T12:37:41;13.13;;;5.77;;
75272;SDS011;63869;52.344;16.928;2023-04-06T12:40:07;19.17;;;6.50;;
75272;SDS011;63869;52.344;16.928;2023-04-06T12:42:35;8.23;;;5.28;;
75272;SDS011;63869;52.344;16.928;2023-04-06T12:45:01;10.68;;;5.55;;
75272;SDS011;63869;52.344;16.928;2023-04-06T12:47:26;25.20;;;6.10;;
75272;SDS011;63869;52.344;16.928;2023-04-06T12:49:51;9.80;;;6.00;;
75272;SDS011;63869;52.344;16.928;2023-04-06T12:52:17;21.87;;;6.43;;
75272;SDS011;63869;52.344;16.928;2023-04-06T12:54:42;11.30;;;5.80;;
75272;SDS011;63869;52.344;16.928;2023-04-06T12:57:08;9.73;;;5.60;;
75272;SDS011;63869;52.344;16.928;2023-04-06T12:59:33;9.48;;;5.88;;
75272;SDS011;63869;52.344;16.928;2023-04-06T13:02:00;10.40;;;6.40;;
75272;SDS011;63869;52.344;16.928;2023-04-06T13:04:25;13.57;;;5.67;;
75272;SDS011;63869;52.344;16.928;2023-04-06T13:06:51;8.63;;;5.15;;
75272;SDS011;63869;52.344;16.928;2023-04-06T13:09:16;7.95;;;5.43;;
75272;SDS011;63869;52.344;16.928;2023-04-06T13:11:42;8.27;;;5.00;;
75272;SDS011;63869;52.344;16.928;2023-04-06T13:14:07;9.18;;;5.00;;
75272;SDS011;63869;52.344;16.928;2023-04-06T13:16:32;11.77;;;5.20;;
75272;SDS011;63869;52.344;16.928;2023-04-06T13:18:58;10.25;;;5.00;;
75272;SDS011;63869;52.344;16.928;2023-04-06T13:21:23;8.77;;;5.22;;
75272;SDS011;63869;52.344;16.928;2023-04-06T13:23:48;12.15;;;5.05;;
75272;SDS011;63869;52.344;16.928;2023-04-06T13:26:15;27.15;;;5.65;;
75272;SDS011;63869;52.344;16.928;2023-04-06T13:28:42;8.95;;;5.65;;
75272;SDS011;63869;52.344;16.928;2023-04-06T13:31:07;5.75;;;4.28;;
75272;SDS011;63869;52.344;16.928;2023-04-06T13:33:33;11.52;;;4.78;;
75272;SDS011;63869;52.344;16.928;2023-04-06T13:35:59;11.32;;;4.45;;
75272;SDS011;63869;52.344;16.928;2023-04-06T13:38:25;6.90;;;4.32;;
75272;SDS011;63869;52.344;16.928;2023-04-06T13:40:50;7.63;;;4.50;;
75272;SDS011;63869;52.344;16.928;2023-04-06T13:43:16;6.90;;;5.03;;
75272;SDS011;63869;52.344;16.928;2023-04-06T13:45:48;9.55;;;5.07;;
75272;SDS011;63869;52.344;16.928;2023-04-06T13:48:20;10.05;;;5.20;;
75272;SDS011;63869;52.344;16.928;2023-04-06T13:50:46;8.63;;;5.50;;
75272;SDS011;63869;52.344;16.928;2023-04-06T13:53:14;7.68;;;5.03;;
75272;SDS011;63869;52.344;16.928;2023-04-06T13:55:40;14.82;;;5.53;;
75272;SDS011;63869;52.344;16.928;2023-04-06T13:58:05;7.95;;;5.10;;
75272;SDS011;63869;52.344;16.928;2023-04-06T14:00:31;8.38;;;5.07;;
75272;SDS011;63869;52.344;16.928;2023-04-06T14:02:56;9.00;;;4.85;;
75272;SDS011;63869;52.344;16.928;2023-04-06T14:05:21;9.18;;;5.03;;
75272;SDS011;63869;52.344;16.928;2023-04-06T14:07:48;6.40;;;4.72;;
75272;SDS011;63869;52.344;16.928;2023-04-06T14:10:13;9.93;;;5.30;;
75272;SDS011;63869;52.344;16.928;2023-04-06T14:12:42;27.00;;;6.13;;
75272;SDS011;63869;52.344;16.928;2023-04-06T14:15:10;15.80;;;6.03;;
75272;SDS011;63869;52.344;16.928;2023-04-06T14:17:36;10.18;;;5.47;;
75272;SDS011;63869;52.344;16.928;2023-04-06T14:20:02;11.25;;;5.32;;
75272;SDS011;63869;52.344;16.928;2023-04-06T14:22:27;9.32;;;5.20;;